createdAt,value
2023-05-22T00:01:56.281Z,16.53
2023-05-22T00:06:00.208Z,16.52
2023-05-22T00:10:02.845Z,16.53
2023-05-22T00:14:06.880Z,16.53
2023-05-22T00:18:09.567Z,16.51
2023-05-22T00:22:12.214Z,16.49
2023-05-22T00:26:16.345Z,16.52
2023-05-22T00:30:20.362Z,16.28
2023-05-22T00:34:23.088Z,16.08
2023-05-22T00:38:32.343Z,15.97
2023-05-22T00:42:34.986Z,15.84
2023-05-22T00:46:39.282Z,15.73
2023-05-22T00:50:42.719Z,15.67
2023-05-22T00:54:46.561Z,15.59
2023-05-22T00:58:49.797Z,15.47
2023-05-22T01:02:53.946Z,15.31
2023-05-22T01:06:56.776Z,15.23
2023-05-22T01:11:06.157Z,15.18
2023-05-22T01:15:18.134Z,15.11
2023-05-22T01:19:54.210Z,15.06
2023-05-22T01:24:41.861Z,14.96
2023-05-22T01:29:09.614Z,14.82
2023-05-22T01:33:16.193Z,14.73
2023-05-22T01:37:21.721Z,14.71
2023-05-22T01:41:24.637Z,14.68
2023-05-22T01:45:28.428Z,14.57
2023-05-22T01:49:33.233Z,14.46
2023-05-22T01:53:45.163Z,14.28
2023-05-22T01:57:57.060Z,14.21
2023-05-22T02:02:03.874Z,14.14
2023-05-22T02:06:11.049Z,14.02
2023-05-22T02:10:15.937Z,13.99
2023-05-22T02:14:19.736Z,13.98
2023-05-22T02:18:29.475Z,13.97
2023-05-22T02:22:33.511Z,13.92
2023-05-22T02:26:37.163Z,13.89
2023-05-22T02:30:40.064Z,13.75
2023-05-22T02:34:42.950Z,13.67
2023-05-22T02:38:46.970Z,13.58
2023-05-22T02:42:49.613Z,13.50
2023-05-22T02:46:52.394Z,13.44
2023-05-22T02:50:55.023Z,13.39
2023-05-22T02:54:59.064Z,13.26
2023-05-22T02:59:01.704Z,13.15
2023-05-22T03:03:04.582Z,13.10
2023-05-22T03:07:08.090Z,13.02
2023-05-22T03:11:12.399Z,12.96
2023-05-22T03:15:15.042Z,12.87
2023-05-22T03:19:18.047Z,12.80
2023-05-22T03:23:21.570Z,12.73
2023-05-22T03:27:25.676Z,12.70
2023-05-22T03:31:31.482Z,12.63
2023-05-22T03:35:34.004Z,12.59
2023-05-22T03:39:36.666Z,12.54
2023-05-22T03:43:43.405Z,12.51
2023-05-22T03:47:47.537Z,12.44
2023-05-22T03:51:50.366Z,12.43
2023-05-22T03:55:53.222Z,12.39
2023-05-22T03:59:57.277Z,12.39
2023-05-22T04:03:59.939Z,12.40
2023-05-22T04:08:02.576Z,12.42
2023-05-22T04:12:06.512Z,12.57
2023-05-22T04:16:10.867Z,12.63
2023-05-22T04:20:14.405Z,12.60
2023-05-22T04:24:17.066Z,12.64
2023-05-22T04:28:22.490Z,12.73
2023-05-22T04:32:27.538Z,12.74
2023-05-22T04:36:31.484Z,12.81
2023-05-22T04:40:34.465Z,12.92
2023-05-22T04:44:38.239Z,12.98
2023-05-22T04:48:42.340Z,13.12
2023-05-22T04:52:47.383Z,13.29
2023-05-22T04:56:50.160Z,13.41
2023-05-22T05:01:00.339Z,13.56
2023-05-22T05:05:04.429Z,13.67
2023-05-22T05:09:07.913Z,13.80
2023-05-22T05:13:10.645Z,13.93
2023-05-22T05:17:13.862Z,14.01
2023-05-22T05:21:22.624Z,14.19
2023-05-22T05:25:26.892Z,14.30
2023-05-22T05:29:29.581Z,14.53
2023-05-22T05:33:32.614Z,14.80
2023-05-22T05:37:37.162Z,14.96
2023-05-22T05:41:40.550Z,15.11
2023-05-22T05:45:43.839Z,15.33
2023-05-22T05:49:46.571Z,15.55
2023-05-22T05:53:50.754Z,15.77
2023-05-22T05:57:53.472Z,16.00
2023-05-22T06:01:56.295Z,16.24
2023-05-22T06:05:59.337Z,16.53
2023-05-22T06:10:03.483Z,16.75
2023-05-22T06:14:08.448Z,16.92
2023-05-22T06:18:13.508Z,17.12
2023-05-22T06:22:16.556Z,17.34
2023-05-22T06:26:21.921Z,17.50
2023-05-22T06:30:39.102Z,17.68
2023-05-22T06:34:44.318Z,17.81
2023-05-22T06:38:47.440Z,17.93
2023-05-22T06:42:51.623Z,18.07
2023-05-22T06:46:54.316Z,18.23
2023-05-22T06:50:56.976Z,18.42
2023-05-22T06:55:04.511Z,18.44
2023-05-22T06:59:08.769Z,18.57
2023-05-22T07:03:11.907Z,18.71
2023-05-22T07:07:14.726Z,18.80
2023-05-22T07:11:17.562Z,18.88
2023-05-22T07:15:21.567Z,18.95
2023-05-22T07:19:24.495Z,19.14
2023-05-22T07:23:27.196Z,19.24
2023-05-22T07:27:29.870Z,19.48
2023-05-22T07:31:34.512Z,19.70
2023-05-22T07:35:37.240Z,19.83
2023-05-22T07:39:39.963Z,20.09
2023-05-22T07:43:42.923Z,20.34
2023-05-22T07:47:46.969Z,20.36
2023-05-22T07:51:49.839Z,20.46
2023-05-22T07:55:53.417Z,20.64
2023-05-22T07:59:56.528Z,20.99
2023-05-22T08:04:01.594Z,21.23
2023-05-22T08:08:04.822Z,21.50
2023-05-22T08:12:08.717Z,21.65
2023-05-22T08:16:11.985Z,21.63
2023-05-22T08:20:16.237Z,21.73
2023-05-22T08:24:18.970Z,21.83
2023-05-22T08:28:21.740Z,22.06
2023-05-22T08:32:24.349Z,22.24
2023-05-22T08:36:28.360Z,22.46
2023-05-22T08:40:37.138Z,22.51
2023-05-22T08:44:40.479Z,22.55
2023-05-22T08:48:44.898Z,22.65
2023-05-22T08:52:52.582Z,22.90
2023-05-22T08:56:57.081Z,23.08
2023-05-22T09:01:00.663Z,23.24
2023-05-22T09:05:05.388Z,23.35
2023-05-22T09:09:10.794Z,23.37
2023-05-22T09:13:25.330Z,23.44
2023-05-22T09:17:28.365Z,23.74
2023-05-22T09:21:31.350Z,23.52
2023-05-22T09:25:36.396Z,23.72
2023-05-22T09:29:50.403Z,23.85
2023-05-22T09:33:53.816Z,23.83
2023-05-22T09:37:57.297Z,23.90
2023-05-22T09:42:02.689Z,23.96
2023-05-22T09:46:05.510Z,23.98
2023-05-22T09:50:10.778Z,24.20
2023-05-22T09:54:16.514Z,24.51
2023-05-22T09:58:21.254Z,24.75
2023-05-22T10:02:24.983Z,24.85
2023-05-22T10:06:28.802Z,24.77
2023-05-22T10:10:32.124Z,24.84
2023-05-22T10:14:36.975Z,25.00
2023-05-22T10:18:40.338Z,25.02
2023-05-22T10:22:43.285Z,25.14
2023-05-22T10:26:46.345Z,25.30
2023-05-22T10:30:57.355Z,25.52
2023-05-22T10:35:09.707Z,25.60
2023-05-22T10:39:25.192Z,25.81
2023-05-22T10:43:31.665Z,26.01
2023-05-22T10:47:35.864Z,26.06
2023-05-22T10:51:38.868Z,26.27
2023-05-22T10:55:48.182Z,26.43
2023-05-22T10:59:51.379Z,26.41
2023-05-22T11:04:00.301Z,26.48
2023-05-22T11:08:38.367Z,26.39
2023-05-22T11:12:41.509Z,26.40
2023-05-22T11:16:44.405Z,26.74
2023-05-22T11:20:48.713Z,26.88
2023-05-22T11:24:51.539Z,26.75
2023-05-22T11:28:54.442Z,26.79
2023-05-22T11:32:59.374Z,27.27
2023-05-22T11:37:03.521Z,27.31
2023-05-22T11:41:16.354Z,27.30
2023-05-22T11:45:19.024Z,27.39
2023-05-22T11:49:24.028Z,27.58
2023-05-22T11:53:28.074Z,27.92
2023-05-22T11:57:31.501Z,27.94
2023-05-22T12:01:36.213Z,27.98
2023-05-22T12:05:39.312Z,27.88
2023-05-22T12:09:43.847Z,28.03
2023-05-22T12:13:46.555Z,28.53
2023-05-22T12:17:49.310Z,28.71
2023-05-22T12:21:52.520Z,28.97
2023-05-22T12:26:00.765Z,28.63
2023-05-22T12:30:10.614Z,28.89
2023-05-22T12:34:14.148Z,28.89
2023-05-22T12:38:16.903Z,28.77
2023-05-22T12:42:20.943Z,28.75
2023-05-22T12:46:23.575Z,29.27
2023-05-22T12:50:26.248Z,28.98
2023-05-22T12:54:28.880Z,29.35
2023-05-22T12:58:32.889Z,29.35
2023-05-22T13:02:35.606Z,29.08
2023-05-22T13:06:38.260Z,29.14
2023-05-22T13:10:40.966Z,29.21
2023-05-22T13:14:45.303Z,29.28
2023-05-22T13:18:48.120Z,29.45
2023-05-22T13:22:51.164Z,29.68
2023-05-22T13:26:53.799Z,29.82
2023-05-22T13:30:57.825Z,29.74
2023-05-22T13:35:00.814Z,30.07
2023-05-22T13:39:03.602Z,30.52
2023-05-22T13:43:06.358Z,30.54
2023-05-22T13:47:10.592Z,29.87
2023-05-22T13:51:13.295Z,30.20
2023-05-22T13:55:16.279Z,30.40
2023-05-22T13:59:18.924Z,30.65
2023-05-22T14:03:22.992Z,30.53
2023-05-22T14:07:25.720Z,30.40
2023-05-22T14:11:28.488Z,30.18
2023-05-22T14:15:31.217Z,30.34
2023-05-22T14:19:35.389Z,30.44
2023-05-22T14:23:38.151Z,30.31
2023-05-22T14:27:40.826Z,30.09
2023-05-22T14:31:50.430Z,29.87
2023-05-22T14:35:55.586Z,30.15
2023-05-22T14:39:58.261Z,30.30
2023-05-22T14:44:00.896Z,30.44
2023-05-22T14:48:04.351Z,30.29
2023-05-22T14:52:08.430Z,30.20
2023-05-22T14:56:11.065Z,29.76
2023-05-22T15:00:15.229Z,29.78
2023-05-22T15:04:18.068Z,30.02
2023-05-22T15:08:22.300Z,29.97
2023-05-22T15:12:24.982Z,30.24
2023-05-22T15:16:28.051Z,30.30
2023-05-22T15:20:31.272Z,30.32
2023-05-22T15:24:36.269Z,30.07
2023-05-22T15:28:38.968Z,29.89
2023-05-22T15:32:41.649Z,30.01
2023-05-22T15:36:44.353Z,29.83
2023-05-22T15:40:48.403Z,29.58
2023-05-22T15:44:51.065Z,30.01
2023-05-22T15:48:53.730Z,30.32
2023-05-22T15:52:58.257Z,30.60
2023-05-22T15:57:03.251Z,30.76
2023-05-22T16:01:07.886Z,30.50
2023-05-22T16:05:10.558Z,30.23
2023-05-22T16:09:13.394Z,30.07
2023-05-22T16:13:17.764Z,30.14
2023-05-22T16:17:20.594Z,30.35
2023-05-22T16:21:23.328Z,30.46
2023-05-22T16:25:25.967Z,30.52
2023-05-22T16:29:31.453Z,30.32
2023-05-22T16:33:36.268Z,29.75
2023-05-22T16:37:39.226Z,29.58
2023-05-22T16:41:42.087Z,29.59
2023-05-22T16:45:50.855Z,29.60
2023-05-22T16:49:53.468Z,29.68
2023-05-22T16:54:03.755Z,29.74
2023-05-22T16:58:06.483Z,29.47
2023-05-22T17:02:10.587Z,29.20
2023-05-22T17:06:14.231Z,28.94
2023-05-22T17:10:16.949Z,28.44
2023-05-22T17:14:21.678Z,28.10
2023-05-22T17:18:25.958Z,27.79
2023-05-22T17:22:28.730Z,27.82
2023-05-22T17:26:33.207Z,28.00
2023-05-22T17:30:36.064Z,27.98
2023-05-22T17:34:40.024Z,27.91
2023-05-22T17:38:42.702Z,27.77
2023-05-22T17:42:45.347Z,27.66
2023-05-22T17:46:49.411Z,27.70
2023-05-22T17:50:54.247Z,27.59
2023-05-22T17:54:56.942Z,27.57
2023-05-22T17:58:59.565Z,27.49
2023-05-22T18:03:02.653Z,27.36
2023-05-22T18:07:07.079Z,27.23
2023-05-22T18:11:09.800Z,27.11
2023-05-22T18:15:12.902Z,26.82
2023-05-22T18:19:15.771Z,26.28
2023-05-22T18:23:20.701Z,25.74
2023-05-22T18:27:23.386Z,25.38
2023-05-22T18:31:26.190Z,25.23
2023-05-22T18:35:29.023Z,25.23
2023-05-22T18:39:33.012Z,25.10
2023-05-22T18:43:35.838Z,24.96
2023-05-22T18:47:38.658Z,24.73
2023-05-22T18:51:41.738Z,24.52
2023-05-22T18:55:46.419Z,24.40
2023-05-22T18:59:50.858Z,24.25
2023-05-22T19:03:53.507Z,23.93
2023-05-22T19:07:56.239Z,23.62
2023-05-22T19:12:00.358Z,23.36
2023-05-22T19:16:04.303Z,23.22
2023-05-22T19:20:08.802Z,23.04
2023-05-22T19:24:11.532Z,22.79
2023-05-22T19:28:15.716Z,22.57
2023-05-22T19:32:18.400Z,22.24
2023-05-22T19:36:21.124Z,21.89
2023-05-22T19:40:23.812Z,21.78
2023-05-22T19:44:28.040Z,21.75
2023-05-22T19:48:33.168Z,21.62
2023-05-22T19:52:35.815Z,21.33
2023-05-22T19:56:38.485Z,21.19
2023-05-22T20:00:42.692Z,21.15
2023-05-22T20:04:48.414Z,21.19
2023-05-22T20:08:51.199Z,21.06
2023-05-22T20:12:55.421Z,20.80
2023-05-22T20:16:59.935Z,20.52
2023-05-22T20:21:02.583Z,20.46
2023-05-22T20:25:06.238Z,20.27
2023-05-22T20:29:08.935Z,20.04
2023-05-22T20:33:14.423Z,19.92
2023-05-22T20:37:18.424Z,19.87
2023-05-22T20:41:22.853Z,19.82
2023-05-22T20:45:26.533Z,19.64
2023-05-22T20:49:30.774Z,19.47
2023-05-22T20:53:33.400Z,19.25
2023-05-22T20:57:36.391Z,19.11
2023-05-22T21:01:39.844Z,18.92
2023-05-22T21:05:43.896Z,18.78
2023-05-22T21:09:46.809Z,18.65
2023-05-22T21:13:49.539Z,18.56
2023-05-22T21:17:52.191Z,18.50
2023-05-22T21:21:56.312Z,18.35
2023-05-22T21:25:59.148Z,18.22
2023-05-22T21:30:02.009Z,18.12
2023-05-22T21:34:04.716Z,17.97
2023-05-22T21:38:08.765Z,17.89
2023-05-22T21:42:11.430Z,17.54
2023-05-22T21:46:14.451Z,17.12
2023-05-22T21:50:17.627Z,16.99
2023-05-22T21:54:21.694Z,17.02
2023-05-22T21:58:24.572Z,17.11
2023-05-22T22:02:27.261Z,17.14
2023-05-22T22:06:29.999Z,17.09
2023-05-22T22:10:34.125Z,17.09
2023-05-22T22:14:36.891Z,17.10
2023-05-22T22:18:40.746Z,17.03
2023-05-22T22:22:43.421Z,16.91
2023-05-22T22:26:48.884Z,16.85
2023-05-22T22:30:54.940Z,16.70
2023-05-22T22:34:57.833Z,16.57
2023-05-22T22:39:00.663Z,16.59
2023-05-22T22:43:04.729Z,16.59
2023-05-22T22:47:07.974Z,16.58
2023-05-22T22:51:10.608Z,16.53
2023-05-22T22:55:13.496Z,16.48
2023-05-22T22:59:17.958Z,16.44
2023-05-22T23:03:20.744Z,16.40
2023-05-22T23:07:24.111Z,16.26
2023-05-22T23:11:30.090Z,16.23
2023-05-22T23:15:34.763Z,16.17
2023-05-22T23:19:37.430Z,16.13
2023-05-22T23:23:40.098Z,16.15
2023-05-22T23:27:42.748Z,16.13
2023-05-22T23:31:47.547Z,16.11
2023-05-22T23:35:50.454Z,16.00
2023-05-22T23:39:53.105Z,15.96
2023-05-22T23:43:55.754Z,15.90
2023-05-22T23:47:59.742Z,15.88
2023-05-22T23:52:02.608Z,15.83
2023-05-22T23:56:05.744Z,15.77
